sensor_id;sensor_type;location;lat;lon;timestamp;P1;durP1;ratioP1;P2;durP2;ratioP2
5060;SDS011;2549;52.128;21.068;2023-05-10T00:00:25;18.75;;;5.72;;
5060;SDS011;2549;52.128;21.068;2023-05-10T00:02:52;10.85;;;6.38;;
5060;SDS011;2549;52.128;21.068;2023-05-10T00:05:19;12.82;;;6.47;;
5060;SDS011;2549;52.128;21.068;2023-05-10T00:07:46;14.45;;;5.68;;
5060;SDS011;2549;52.128;21.068;2023-05-10T00:10:13;13.98;;;5.68;;
5060;SDS011;2549;52.128;21.068;2023-05-10T00:12:40;20.95;;;7.60;;
5060;SDS011;2549;52.128;21.068;2023-05-10T00:15:08;8.13;;;5.68;;
5060;SDS011;2549;52.128;21.068;2023-05-10T00:17:35;9.45;;;5.57;;
5060;SDS011;2549;52.128;21.068;2023-05-10T00:20:02;7.13;;;5.23;;
5060;SDS011;2549;52.128;21.068;2023-05-10T00:22:31;9.82;;;5.43;;
5060;SDS011;2549;52.128;21.068;2023-05-10T00:24:58;8.07;;;4.90;;
5060;SDS011;2549;52.128;21.068;2023-05-10T00:27:25;6.60;;;4.78;;
5060;SDS011;2549;52.128;21.068;2023-05-10T00:29:52;11.60;;;5.53;;
5060;SDS011;2549;52.128;21.068;2023-05-10T00:32:19;9.18;;;5.45;;
5060;SDS011;2549;52.128;21.068;2023-05-10T00:34:47;14.82;;;4.88;;
5060;SDS011;2549;52.128;21.068;2023-05-10T00:37:13;8.82;;;5.28;;
5060;SDS011;2549;52.128;21.068;2023-05-10T00:39:40;11.32;;;5.38;;
5060;SDS011;2549;52.128;21.068;2023-05-10T00:42:07;9.45;;;4.90;;
5060;SDS011;2549;52.128;21.068;2023-05-10T00:44:34;9.32;;;4.93;;
5060;SDS011;2549;52.128;21.068;2023-05-10T00:47:01;6.55;;;4.05;;
5060;SDS011;2549;52.128;21.068;2023-05-10T00:49:28;9.57;;;4.30;;
5060;SDS011;2549;52.128;21.068;2023-05-10T00:51:56;14.20;;;4.75;;
5060;SDS011;2549;52.128;21.068;2023-05-10T00:54:23;8.75;;;4.40;;
5060;SDS011;2549;52.128;21.068;2023-05-10T00:56:50;10.88;;;5.20;;
5060;SDS011;2549;52.128;21.068;2023-05-10T00:59:18;6.95;;;4.55;;
5060;SDS011;2549;52.128;21.068;2023-05-10T01:01:45;7.53;;;4.88;;
5060;SDS011;2549;52.128;21.068;2023-05-10T01:04:13;15.55;;;5.03;;
5060;SDS011;2549;52.128;21.068;2023-05-10T01:06:41;4.97;;;4.00;;
5060;SDS011;2549;52.128;21.068;2023-05-10T01:09:08;8.88;;;4.05;;
5060;SDS011;2549;52.128;21.068;2023-05-10T01:11:36;19.50;;;4.50;;
5060;SDS011;2549;52.128;21.068;2023-05-10T01:14:05;15.10;;;4.73;;
5060;SDS011;2549;52.128;21.068;2023-05-10T01:16:34;6.90;;;4.32;;
5060;SDS011;2549;52.128;21.068;2023-05-10T01:19:12;6.88;;;4.25;;
5060;SDS011;2549;52.128;21.068;2023-05-10T01:21:49;7.95;;;4.57;;
5060;SDS011;2549;52.128;21.068;2023-05-10T01:24:27;7.80;;;4.55;;
5060;SDS011;2549;52.128;21.068;2023-05-10T01:35:51;11.77;;;4.78;;
5060;SDS011;2549;52.128;21.068;2023-05-10T01:41:07;6.93;;;4.80;;
5060;SDS011;2549;52.128;21.068;2023-05-10T01:44:11;11.50;;;5.37;;
5060;SDS011;2549;52.128;21.068;2023-05-10T01:46:42;8.73;;;4.00;;
5060;SDS011;2549;52.128;21.068;2023-05-10T01:49:11;6.13;;;4.10;;
5060;SDS011;2549;52.128;21.068;2023-05-10T01:51:47;6.20;;;4.32;;
5060;SDS011;2549;52.128;21.068;2023-05-10T01:54:19;10.10;;;4.28;;
5060;SDS011;2549;52.128;21.068;2023-05-10T01:56:48;10.75;;;4.15;;
5060;SDS011;2549;52.128;21.068;2023-05-10T01:59:21;8.55;;;4.75;;
5060;SDS011;2549;52.128;21.068;2023-05-10T02:01:53;7.35;;;4.60;;
5060;SDS011;2549;52.128;21.068;2023-05-10T02:04:23;7.53;;;4.30;;
5060;SDS011;2549;52.128;21.068;2023-05-10T02:06:51;4.18;;;3.47;;
5060;SDS011;2549;52.128;21.068;2023-05-10T02:09:20;6.43;;;3.45;;
5060;SDS011;2549;52.128;21.068;2023-05-10T02:11:49;6.70;;;4.70;;
5060;SDS011;2549;52.128;21.068;2023-05-10T02:14:16;8.30;;;4.03;;
5060;SDS011;2549;52.128;21.068;2023-05-10T02:16:45;9.52;;;3.92;;
5060;SDS011;2549;52.128;21.068;2023-05-10T02:19:13;8.52;;;3.28;;
5060;SDS011;2549;52.128;21.068;2023-05-10T02:21:43;9.45;;;4.30;;
5060;SDS011;2549;52.128;21.068;2023-05-10T02:24:11;4.47;;;3.40;;
5060;SDS011;2549;52.128;21.068;2023-05-10T02:26:40;8.93;;;4.15;;
5060;SDS011;2549;52.128;21.068;2023-05-10T02:29:08;5.43;;;3.92;;
5060;SDS011;2549;52.128;21.068;2023-05-10T02:31:35;3.35;;;3.05;;
5060;SDS011;2549;52.128;21.068;2023-05-10T02:34:05;5.95;;;3.72;;
5060;SDS011;2549;52.128;21.068;2023-05-10T02:36:35;12.38;;;3.88;;
5060;SDS011;2549;52.128;21.068;2023-05-10T02:39:04;4.78;;;3.25;;
5060;SDS011;2549;52.128;21.068;2023-05-10T02:41:35;7.22;;;3.78;;
5060;SDS011;2549;52.128;21.068;2023-05-10T02:44:03;6.32;;;3.88;;
5060;SDS011;2549;52.128;21.068;2023-05-10T02:46:34;5.55;;;4.18;;
5060;SDS011;2549;52.128;21.068;2023-05-10T02:49:02;4.88;;;3.38;;
5060;SDS011;2549;52.128;21.068;2023-05-10T02:51:30;7.47;;;3.85;;
5060;SDS011;2549;52.128;21.068;2023-05-10T02:54:12;3.63;;;2.97;;
5060;SDS011;2549;52.128;21.068;2023-05-10T02:56:48;4.25;;;3.30;;
5060;SDS011;2549;52.128;21.068;2023-05-10T02:59:19;6.85;;;3.97;;
5060;SDS011;2549;52.128;21.068;2023-05-10T03:01:47;7.03;;;3.67;;
5060;SDS011;2549;52.128;21.068;2023-05-10T03:04:14;7.65;;;3.63;;
5060;SDS011;2549;52.128;21.068;2023-05-10T03:06:41;6.68;;;3.72;;
5060;SDS011;2549;52.128;21.068;2023-05-10T03:09:09;4.75;;;3.40;;
5060;SDS011;2549;52.128;21.068;2023-05-10T03:14:53;4.05;;;3.42;;
5060;SDS011;2549;52.128;21.068;2023-05-10T03:17:35;8.77;;;3.97;;
5060;SDS011;2549;52.128;21.068;2023-05-10T03:20:16;6.15;;;3.58;;
5060;SDS011;2549;52.128;21.068;2023-05-10T03:22:55;3.72;;;3.00;;
5060;SDS011;2549;52.128;21.068;2023-05-10T03:25:28;7.45;;;3.20;;
5060;SDS011;2549;52.128;21.068;2023-05-10T03:27:57;6.13;;;3.28;;
5060;SDS011;2549;52.128;21.068;2023-05-10T03:30:26;7.13;;;3.45;;
5060;SDS011;2549;52.128;21.068;2023-05-10T03:32:53;4.03;;;3.47;;
5060;SDS011;2549;52.128;21.068;2023-05-10T03:35:20;7.15;;;4.38;;
5060;SDS011;2549;52.128;21.068;2023-05-10T03:37:47;5.82;;;3.67;;
5060;SDS011;2549;52.128;21.068;2023-05-10T03:40:14;4.35;;;3.83;;
5060;SDS011;2549;52.128;21.068;2023-05-10T03:42:41;12.48;;;3.78;;
5060;SDS011;2549;52.128;21.068;2023-05-10T03:45:08;7.72;;;4.07;;
5060;SDS011;2549;52.128;21.068;2023-05-10T03:47:35;8.13;;;3.70;;
5060;SDS011;2549;52.128;21.068;2023-05-10T03:50:02;7.13;;;4.22;;
5060;SDS011;2549;52.128;21.068;2023-05-10T03:52:30;12.48;;;4.57;;
5060;SDS011;2549;52.128;21.068;2023-05-10T03:54:56;10.80;;;5.07;;
5060;SDS011;2549;52.128;21.068;2023-05-10T03:57:23;6.30;;;4.78;;
5060;SDS011;2549;52.128;21.068;2023-05-10T03:59:50;17.33;;;4.97;;
5060;SDS011;2549;52.128;21.068;2023-05-10T04:02:17;5.70;;;4.10;;
5060;SDS011;2549;52.128;21.068;2023-05-10T04:04:44;4.82;;;4.10;;
5060;SDS011;2549;52.128;21.068;2023-05-10T04:07:10;15.05;;;4.35;;
5060;SDS011;2549;52.128;21.068;2023-05-10T04:09:37;7.50;;;3.70;;
5060;SDS011;2549;52.128;21.068;2023-05-10T04:12:04;6.22;;;3.55;;
5060;SDS011;2549;52.128;21.068;2023-05-10T04:14:33;6.00;;;4.00;;
5060;SDS011;2549;52.128;21.068;2023-05-10T04:17:00;5.57;;;3.85;;
5060;SDS011;2549;52.128;21.068;2023-05-10T04:19:30;8.52;;;4.05;;
5060;SDS011;2549;52.128;21.068;2023-05-10T04:21:58;6.13;;;4.10;;
5060;SDS011;2549;52.128;21.068;2023-05-10T04:24:25;8.48;;;4.28;;
5060;SDS011;2549;52.128;21.068;2023-05-10T04:26:52;3.95;;;3.50;;
5060;SDS011;2549;52.128;21.068;2023-05-10T04:29:23;15.15;;;3.95;;
5060;SDS011;2549;52.128;21.068;2023-05-10T04:31:49;6.43;;;4.03;;
5060;SDS011;2549;52.128;21.068;2023-05-10T04:34:17;7.40;;;4.07;;
5060;SDS011;2549;52.128;21.068;2023-05-10T04:36:44;9.02;;;4.20;;
5060;SDS011;2549;52.128;21.068;2023-05-10T04:39:11;4.15;;;3.80;;
5060;SDS011;2549;52.128;21.068;2023-05-10T04:41:38;6.60;;;4.10;;
5060;SDS011;2549;52.128;21.068;2023-05-10T04:44:05;13.80;;;3.60;;
5060;SDS011;2549;52.128;21.068;2023-05-10T04:46:32;10.60;;;3.67;;
5060;SDS011;2549;52.128;21.068;2023-05-10T04:48:59;5.55;;;3.70;;
5060;SDS011;2549;52.128;21.068;2023-05-10T04:51:26;3.80;;;2.75;;
5060;SDS011;2549;52.128;21.068;2023-05-10T04:53:53;10.90;;;3.78;;
5060;SDS011;2549;52.128;21.068;2023-05-10T04:56:31;11.60;;;3.20;;
5060;SDS011;2549;52.128;21.068;2023-05-10T04:58:58;7.85;;;3.90;;
5060;SDS011;2549;52.128;21.068;2023-05-10T05:01:25;3.47;;;2.72;;
5060;SDS011;2549;52.128;21.068;2023-05-10T05:03:52;3.05;;;2.80;;
5060;SDS011;2549;52.128;21.068;2023-05-10T05:06:19;4.65;;;3.40;;
5060;SDS011;2549;52.128;21.068;2023-05-10T05:08:51;7.65;;;3.60;;
5060;SDS011;2549;52.128;21.068;2023-05-10T05:11:17;27.57;;;4.90;;
5060;SDS011;2549;52.128;21.068;2023-05-10T05:13:45;4.30;;;2.85;;
5060;SDS011;2549;52.128;21.068;2023-05-10T05:16:12;5.63;;;2.93;;
5060;SDS011;2549;52.128;21.068;2023-05-10T05:18:39;3.08;;;2.70;;
5060;SDS011;2549;52.128;21.068;2023-05-10T05:21:15;3.30;;;2.70;;
5060;SDS011;2549;52.128;21.068;2023-05-10T05:23:43;10.38;;;2.92;;
5060;SDS011;2549;52.128;21.068;2023-05-10T05:26:10;5.38;;;3.40;;
5060;SDS011;2549;52.128;21.068;2023-05-10T05:28:37;3.83;;;2.50;;
5060;SDS011;2549;52.128;21.068;2023-05-10T05:31:04;11.23;;;3.40;;
5060;SDS011;2549;52.128;21.068;2023-05-10T05:33:32;3.25;;;2.58;;
5060;SDS011;2549;52.128;21.068;2023-05-10T05:36:00;4.07;;;2.95;;
5060;SDS011;2549;52.128;21.068;2023-05-10T05:38:31;4.05;;;2.88;;
5060;SDS011;2549;52.128;21.068;2023-05-10T05:40:58;3.00;;;2.77;;
5060;SDS011;2549;52.128;21.068;2023-05-10T05:43:25;5.90;;;3.10;;
5060;SDS011;2549;52.128;21.068;2023-05-10T05:45:52;5.13;;;2.73;;
5060;SDS011;2549;52.128;21.068;2023-05-10T05:48:20;4.90;;;3.20;;
5060;SDS011;2549;52.128;21.068;2023-05-10T05:50:47;6.27;;;3.73;;
5060;SDS011;2549;52.128;21.068;2023-05-10T05:53:14;4.45;;;2.33;;
5060;SDS011;2549;52.128;21.068;2023-05-10T05:55:51;4.50;;;2.97;;
5060;SDS011;2549;52.128;21.068;2023-05-10T05:58:19;6.88;;;3.17;;
5060;SDS011;2549;52.128;21.068;2023-05-10T06:00:47;3.50;;;2.50;;
5060;SDS011;2549;52.128;21.068;2023-05-10T06:03:14;6.30;;;2.73;;
5060;SDS011;2549;52.128;21.068;2023-05-10T06:05:41;4.60;;;2.80;;
5060;SDS011;2549;52.128;21.068;2023-05-10T06:08:07;9.98;;;5.25;;
5060;SDS011;2549;52.128;21.068;2023-05-10T06:10:34;4.70;;;2.80;;
5060;SDS011;2549;52.128;21.068;2023-05-10T06:13:01;3.90;;;3.00;;
5060;SDS011;2549;52.128;21.068;2023-05-10T06:15:28;9.43;;;3.00;;
5060;SDS011;2549;52.128;21.068;2023-05-10T06:17:56;2.97;;;2.47;;
5060;SDS011;2549;52.128;21.068;2023-05-10T06:20:22;4.70;;;2.97;;
5060;SDS011;2549;52.128;21.068;2023-05-10T06:22:49;3.43;;;2.87;;
5060;SDS011;2549;52.128;21.068;2023-05-10T06:25:16;3.80;;;3.40;;
5060;SDS011;2549;52.128;21.068;2023-05-10T06:27:45;2.53;;;2.33;;
5060;SDS011;2549;52.128;21.068;2023-05-10T06:30:17;9.70;;;2.77;;
5060;SDS011;2549;52.128;21.068;2023-05-10T06:32:44;3.33;;;2.27;;
5060;SDS011;2549;52.128;21.068;2023-05-10T06:35:12;3.50;;;2.67;;
5060;SDS011;2549;52.128;21.068;2023-05-10T06:37:39;7.53;;;2.20;;
5060;SDS011;2549;52.128;21.068;2023-05-10T06:40:06;8.23;;;3.13;;
5060;SDS011;2549;52.128;21.068;2023-05-10T06:42:33;2.47;;;2.20;;
5060;SDS011;2549;52.128;21.068;2023-05-10T06:45:00;4.20;;;2.33;;
5060;SDS011;2549;52.128;21.068;2023-05-10T06:47:27;4.83;;;2.57;;
5060;SDS011;2549;52.128;21.068;2023-05-10T06:49:54;4.10;;;2.43;;
5060;SDS011;2549;52.128;21.068;2023-05-10T06:52:22;11.00;;;2.50;;
5060;SDS011;2549;52.128;21.068;2023-05-10T06:54:49;3.63;;;1.83;;
5060;SDS011;2549;52.128;21.068;2023-05-10T06:57:16;5.27;;;2.43;;
5060;SDS011;2549;52.128;21.068;2023-05-10T06:59:57;8.40;;;2.50;;
5060;SDS011;2549;52.128;21.068;2023-05-10T07:02:30;2.93;;;2.40;;
5060;SDS011;2549;52.128;21.068;2023-05-10T07:04:57;2.77;;;2.43;;
5060;SDS011;2549;52.128;21.068;2023-05-10T07:07:28;2.07;;;1.87;;
5060;SDS011;2549;52.128;21.068;2023-05-10T07:09:55;10.13;;;2.17;;
5060;SDS011;2549;52.128;21.068;2023-05-10T07:12:24;6.53;;;2.13;;
5060;SDS011;2549;52.128;21.068;2023-05-10T07:14:51;3.90;;;2.00;;
5060;SDS011;2549;52.128;21.068;2023-05-10T07:17:18;2.70;;;2.10;;
5060;SDS011;2549;52.128;21.068;2023-05-10T07:19:45;2.87;;;1.67;;
5060;SDS011;2549;52.128;21.068;2023-05-10T07:22:12;3.07;;;2.20;;
5060;SDS011;2549;52.128;21.068;2023-05-10T07:24:39;7.57;;;1.70;;
5060;SDS011;2549;52.128;21.068;2023-05-10T07:27:06;3.37;;;2.23;;
5060;SDS011;2549;52.128;21.068;2023-05-10T07:29:33;4.67;;;1.53;;
5060;SDS011;2549;52.128;21.068;2023-05-10T07:32:00;1.60;;;1.50;;
5060;SDS011;2549;52.128;21.068;2023-05-10T07:34:27;5.20;;;1.87;;
5060;SDS011;2549;52.128;21.068;2023-05-10T07:36:57;3.60;;;1.73;;
5060;SDS011;2549;52.128;21.068;2023-05-10T07:39:25;1.53;;;1.43;;
5060;SDS011;2549;52.128;21.068;2023-05-10T07:41:54;1.77;;;1.53;;
5060;SDS011;2549;52.128;21.068;2023-05-10T07:44:21;3.70;;;1.60;;
5060;SDS011;2549;52.128;21.068;2023-05-10T07:46:48;6.53;;;1.87;;
5060;SDS011;2549;52.128;21.068;2023-05-10T07:49:15;2.33;;;2.13;;
5060;SDS011;2549;52.128;21.068;2023-05-10T07:51:42;1.20;;;1.10;;
5060;SDS011;2549;52.128;21.068;2023-05-10T07:54:09;4.73;;;1.30;;
5060;SDS011;2549;52.128;21.068;2023-05-10T07:56:36;4.43;;;1.50;;
5060;SDS011;2549;52.128;21.068;2023-05-10T07:59:03;2.33;;;1.50;;
5060;SDS011;2549;52.128;21.068;2023-05-10T08:01:33;2.97;;;1.90;;
5060;SDS011;2549;52.128;21.068;2023-05-10T08:04:00;3.00;;;1.50;;
5060;SDS011;2549;52.128;21.068;2023-05-10T08:06:28;1.63;;;1.53;;
5060;SDS011;2549;52.128;21.068;2023-05-10T08:08:56;1.70;;;1.60;;
5060;SDS011;2549;52.128;21.068;2023-05-10T08:11:23;4.37;;;1.50;;
5060;SDS011;2549;52.128;21.068;2023-05-10T08:13:51;3.43;;;1.90;;
5060;SDS011;2549;52.128;21.068;2023-05-10T08:16:18;1.33;;;1.20;;
5060;SDS011;2549;52.128;21.068;2023-05-10T08:18:46;1.80;;;1.70;;
5060;SDS011;2549;52.128;21.068;2023-05-10T08:21:13;2.87;;;1.47;;
5060;SDS011;2549;52.128;21.068;2023-05-10T08:23:41;2.60;;;1.10;;
5060;SDS011;2549;52.128;21.068;2023-05-10T08:26:10;2.30;;;1.57;;
5060;SDS011;2549;52.128;21.068;2023-05-10T08:28:37;1.30;;;1.20;;
5060;SDS011;2549;52.128;21.068;2023-05-10T08:31:04;1.97;;;1.67;;
5060;SDS011;2549;52.128;21.068;2023-05-10T08:33:32;2.70;;;1.80;;
5060;SDS011;2549;52.128;21.068;2023-05-10T08:35:58;4.57;;;1.80;;
5060;SDS011;2549;52.128;21.068;2023-05-10T08:38:26;3.77;;;2.17;;
5060;SDS011;2549;52.128;21.068;2023-05-10T08:40:53;1.70;;;1.50;;
5060;SDS011;2549;52.128;21.068;2023-05-10T08:43:28;3.23;;;1.83;;
5060;SDS011;2549;52.128;21.068;2023-05-10T08:45:56;2.67;;;2.00;;
5060;SDS011;2549;52.128;21.068;2023-05-10T08:48:26;5.33;;;1.60;;
5060;SDS011;2549;52.128;21.068;2023-05-10T08:50:55;5.67;;;1.40;;
5060;SDS011;2549;52.128;21.068;2023-05-10T08:53:24;6.47;;;1.87;;
5060;SDS011;2549;52.128;21.068;2023-05-10T08:55:54;2.17;;;1.97;;
5060;SDS011;2549;52.128;21.068;2023-05-10T08:58:21;1.70;;;1.60;;
5060;SDS011;2549;52.128;21.068;2023-05-10T09:00:49;5.83;;;1.70;;
5060;SDS011;2549;52.128;21.068;2023-05-10T09:03:19;1.83;;;1.40;;
5060;SDS011;2549;52.128;21.068;2023-05-10T09:05:46;2.20;;;1.77;;
5060;SDS011;2549;52.128;21.068;2023-05-10T09:08:13;2.53;;;1.57;;
5060;SDS011;2549;52.128;21.068;2023-05-10T09:10:45;3.67;;;1.37;;
5060;SDS011;2549;52.128;21.068;2023-05-10T09:13:14;12.23;;;1.80;;
5060;SDS011;2549;52.128;21.068;2023-05-10T09:15:43;2.40;;;1.90;;
5060;SDS011;2549;52.128;21.068;2023-05-10T09:18:10;11.00;;;2.00;;
5060;SDS011;2549;52.128;21.068;2023-05-10T09:20:37;1.73;;;1.63;;
5060;SDS011;2549;52.128;21.068;2023-05-10T09:23:04;4.30;;;1.93;;
5060;SDS011;2549;52.128;21.068;2023-05-10T09:25:32;4.43;;;2.10;;
5060;SDS011;2549;52.128;21.068;2023-05-10T09:28:02;4.07;;;1.50;;
5060;SDS011;2549;52.128;21.068;2023-05-10T09:30:32;4.57;;;1.87;;
5060;SDS011;2549;52.128;21.068;2023-05-10T09:32:59;1.80;;;1.40;;
5060;SDS011;2549;52.128;21.068;2023-05-10T09:35:28;7.50;;;2.40;;
5060;SDS011;2549;52.128;21.068;2023-05-10T09:38:00;4.83;;;1.40;;
5060;SDS011;2549;52.128;21.068;2023-05-10T09:40:29;6.80;;;2.10;;
5060;SDS011;2549;52.128;21.068;2023-05-10T09:42:58;4.80;;;1.90;;
5060;SDS011;2549;52.128;21.068;2023-05-10T09:45:27;2.10;;;1.90;;
5060;SDS011;2549;52.128;21.068;2023-05-10T09:47:55;5.80;;;1.20;;
5060;SDS011;2549;52.128;21.068;2023-05-10T09:50:23;1.43;;;1.33;;
5060;SDS011;2549;52.128;21.068;2023-05-10T09:52:51;4.60;;;1.50;;
5060;SDS011;2549;52.128;21.068;2023-05-10T09:55:46;1.40;;;1.30;;
5060;SDS011;2549;52.128;21.068;2023-05-10T09:58:12;3.40;;;1.40;;
5060;SDS011;2549;52.128;21.068;2023-05-10T10:00:41;1.27;;;1.27;;
5060;SDS011;2549;52.128;21.068;2023-05-10T10:03:16;1.60;;;1.50;;
5060;SDS011;2549;52.128;21.068;2023-05-10T10:05:45;4.97;;;2.83;;
5060;SDS011;2549;52.128;21.068;2023-05-10T10:08:13;1.47;;;1.37;;
5060;SDS011;2549;52.128;21.068;2023-05-10T10:10:41;9.50;;;2.07;;
5060;SDS011;2549;52.128;21.068;2023-05-10T10:13:11;4.20;;;1.63;;
5060;SDS011;2549;52.128;21.068;2023-05-10T10:15:38;3.33;;;1.70;;
5060;SDS011;2549;52.128;21.068;2023-05-10T10:18:05;5.10;;;2.20;;
5060;SDS011;2549;52.128;21.068;2023-05-10T10:20:35;3.00;;;2.07;;
5060;SDS011;2549;52.128;21.068;2023-05-10T10:23:03;3.47;;;1.40;;
5060;SDS011;2549;52.128;21.068;2023-05-10T10:25:31;4.10;;;1.60;;
5060;SDS011;2549;52.128;21.068;2023-05-10T10:30:42;7.90;;;2.10;;
5060;SDS011;2549;52.128;21.068;2023-05-10T10:35:59;2.50;;;2.10;;
5060;SDS011;2549;52.128;21.068;2023-05-10T10:41:31;4.73;;;1.47;;
5060;SDS011;2549;52.128;21.068;2023-05-10T10:49:42;1.43;;;1.30;;
5060;SDS011;2549;52.128;21.068;2023-05-10T10:55:00;2.13;;;1.77;;
5060;SDS011;2549;52.128;21.068;2023-05-10T11:02:47;1.60;;;1.50;;
5060;SDS011;2549;52.128;21.068;2023-05-10T11:08:12;1.37;;;1.37;;
5060;SDS011;2549;52.128;21.068;2023-05-10T11:10:49;3.80;;;2.13;;
5060;SDS011;2549;52.128;21.068;2023-05-10T11:13:26;1.80;;;1.70;;
5060;SDS011;2549;52.128;21.068;2023-05-10T11:21:26;1.67;;;1.50;;
5060;SDS011;2549;52.128;21.068;2023-05-10T11:23:53;1.47;;;1.37;;
5060;SDS011;2549;52.128;21.068;2023-05-10T11:26:24;7.80;;;2.10;;
5060;SDS011;2549;52.128;21.068;2023-05-10T11:28:53;4.50;;;1.50;;
5060;SDS011;2549;52.128;21.068;2023-05-10T11:31:21;2.20;;;1.50;;
5060;SDS011;2549;52.128;21.068;2023-05-10T11:33:50;1.73;;;1.23;;
5060;SDS011;2549;52.128;21.068;2023-05-10T11:36:19;12.70;;;1.60;;
5060;SDS011;2549;52.128;21.068;2023-05-10T11:38:49;1.60;;;1.50;;
5060;SDS011;2549;52.128;21.068;2023-05-10T11:41:17;2.33;;;2.03;;
5060;SDS011;2549;52.128;21.068;2023-05-10T11:43:49;9.83;;;1.40;;
5060;SDS011;2549;52.128;21.068;2023-05-10T11:46:18;7.70;;;1.90;;
5060;SDS011;2549;52.128;21.068;2023-05-10T11:48:49;3.47;;;1.60;;
5060;SDS011;2549;52.128;21.068;2023-05-10T11:51:24;6.83;;;1.37;;
5060;SDS011;2549;52.128;21.068;2023-05-10T11:53:53;4.00;;;1.67;;
5060;SDS011;2549;52.128;21.068;2023-05-10T11:56:21;4.03;;;1.93;;
5060;SDS011;2549;52.128;21.068;2023-05-10T11:58:53;6.63;;;2.40;;
5060;SDS011;2549;52.128;21.068;2023-05-10T12:01:24;8.30;;;1.77;;
5060;SDS011;2549;52.128;21.068;2023-05-10T12:03:53;6.40;;;1.67;;
5060;SDS011;2549;52.128;21.068;2023-05-10T12:06:29;11.30;;;1.70;;
5060;SDS011;2549;52.128;21.068;2023-05-10T12:08:58;1.90;;;1.60;;
5060;SDS011;2549;52.128;21.068;2023-05-10T12:11:25;3.67;;;1.40;;
5060;SDS011;2549;52.128;21.068;2023-05-10T12:13:53;2.93;;;1.40;;
5060;SDS011;2549;52.128;21.068;2023-05-10T12:16:22;2.93;;;1.73;;
5060;SDS011;2549;52.128;21.068;2023-05-10T12:18:58;3.33;;;1.30;;
5060;SDS011;2549;52.128;21.068;2023-05-10T12:21:29;3.67;;;1.60;;
5060;SDS011;2549;52.128;21.068;2023-05-10T12:24:01;2.33;;;2.13;;
5060;SDS011;2549;52.128;21.068;2023-05-10T12:26:32;9.20;;;2.07;;
5060;SDS011;2549;52.128;21.068;2023-05-10T12:29:11;4.47;;;1.90;;
5060;SDS011;2549;52.128;21.068;2023-05-10T12:31:50;6.60;;;1.60;;
5060;SDS011;2549;52.128;21.068;2023-05-10T12:36:57;1.50;;;1.40;;
5060;SDS011;2549;52.128;21.068;2023-05-10T12:39:25;5.07;;;1.40;;
5060;SDS011;2549;52.128;21.068;2023-05-10T12:41:52;4.10;;;1.67;;
5060;SDS011;2549;52.128;21.068;2023-05-10T12:44:19;1.60;;;1.50;;
5060;SDS011;2549;52.128;21.068;2023-05-10T12:46:46;2.53;;;1.43;;
5060;SDS011;2549;52.128;21.068;2023-05-10T12:49:12;6.67;;;2.00;;
5060;SDS011;2549;52.128;21.068;2023-05-10T12:51:39;2.30;;;1.70;;
5060;SDS011;2549;52.128;21.068;2023-05-10T12:54:06;1.50;;;1.40;;
5060;SDS011;2549;52.128;21.068;2023-05-10T12:56:33;2.60;;;1.80;;
5060;SDS011;2549;52.128;21.068;2023-05-10T12:58:59;4.80;;;1.97;;
5060;SDS011;2549;52.128;21.068;2023-05-10T13:01:26;22.03;;;1.93;;
5060;SDS011;2549;52.128;21.068;2023-05-10T13:03:54;5.40;;;1.60;;
5060;SDS011;2549;52.128;21.068;2023-05-10T13:06:21;2.30;;;1.60;;
5060;SDS011;2549;52.128;21.068;2023-05-10T13:08:47;13.20;;;2.20;;
5060;SDS011;2549;52.128;21.068;2023-05-10T13:11:15;3.87;;;1.50;;
5060;SDS011;2549;52.128;21.068;2023-05-10T13:13:43;3.50;;;1.60;;
5060;SDS011;2549;52.128;21.068;2023-05-10T13:16:09;4.60;;;1.70;;
5060;SDS011;2549;52.128;21.068;2023-05-10T13:18:36;5.73;;;1.40;;
5060;SDS011;2549;52.128;21.068;2023-05-10T13:21:03;2.40;;;1.40;;
5060;SDS011;2549;52.128;21.068;2023-05-10T13:23:31;6.13;;;2.60;;
5060;SDS011;2549;52.128;21.068;2023-05-10T13:25:58;1.90;;;1.57;;
5060;SDS011;2549;52.128;21.068;2023-05-10T13:28:25;3.50;;;1.70;;
5060;SDS011;2549;52.128;21.068;2023-05-10T13:30:52;9.63;;;1.50;;
5060;SDS011;2549;52.128;21.068;2023-05-10T13:33:19;5.37;;;1.60;;
5060;SDS011;2549;52.128;21.068;2023-05-10T13:35:46;1.70;;;1.60;;
5060;SDS011;2549;52.128;21.068;2023-05-10T13:38:13;2.13;;;1.50;;
5060;SDS011;2549;52.128;21.068;2023-05-10T13:40:40;5.43;;;1.80;;
5060;SDS011;2549;52.128;21.068;2023-05-10T13:43:07;1.70;;;1.60;;
5060;SDS011;2549;52.128;21.068;2023-05-10T13:45:33;1.43;;;1.10;;
5060;SDS011;2549;52.128;21.068;2023-05-10T13:48:00;4.10;;;1.40;;
5060;SDS011;2549;52.128;21.068;2023-05-10T13:50:27;8.10;;;1.90;;
5060;SDS011;2549;52.128;21.068;2023-05-10T13:52:54;5.67;;;1.63;;
5060;SDS011;2549;52.128;21.068;2023-05-10T13:55:21;1.77;;;1.37;;
5060;SDS011;2549;52.128;21.068;2023-05-10T13:57:48;1.40;;;1.30;;
5060;SDS011;2549;52.128;21.068;2023-05-10T14:00:15;1.40;;;1.30;;
5060;SDS011;2549;52.128;21.068;2023-05-10T14:02:42;1.40;;;1.30;;
5060;SDS011;2549;52.128;21.068;2023-05-10T14:05:09;2.37;;;1.60;;
5060;SDS011;2549;52.128;21.068;2023-05-10T14:07:36;3.47;;;1.70;;
5060;SDS011;2549;52.128;21.068;2023-05-10T14:10:03;5.57;;;1.60;;
5060;SDS011;2549;52.128;21.068;2023-05-10T14:12:30;2.20;;;1.20;;
5060;SDS011;2549;52.128;21.068;2023-05-10T14:14:57;3.57;;;1.60;;
5060;SDS011;2549;52.128;21.068;2023-05-10T14:17:24;4.93;;;1.63;;
5060;SDS011;2549;52.128;21.068;2023-05-10T14:19:53;1.37;;;1.30;;
5060;SDS011;2549;52.128;21.068;2023-05-10T14:22:20;3.20;;;1.70;;
5060;SDS011;2549;52.128;21.068;2023-05-10T14:24:48;11.80;;;1.73;;
5060;SDS011;2549;52.128;21.068;2023-05-10T14:27:15;5.00;;;1.63;;
5060;SDS011;2549;52.128;21.068;2023-05-10T14:29:42;3.90;;;1.67;;
5060;SDS011;2549;52.128;21.068;2023-05-10T14:32:09;3.60;;;1.70;;
5060;SDS011;2549;52.128;21.068;2023-05-10T14:34:36;5.47;;;1.47;;
5060;SDS011;2549;52.128;21.068;2023-05-10T14:37:02;6.27;;;2.03;;
5060;SDS011;2549;52.128;21.068;2023-05-10T14:39:30;1.50;;;1.40;;
5060;SDS011;2549;52.128;21.068;2023-05-10T14:41:57;2.00;;;1.90;;
5060;SDS011;2549;52.128;21.068;2023-05-10T14:44:24;6.23;;;2.30;;
5060;SDS011;2549;52.128;21.068;2023-05-10T14:46:52;3.10;;;1.70;;
5060;SDS011;2549;52.128;21.068;2023-05-10T14:49:19;2.10;;;1.50;;
5060;SDS011;2549;52.128;21.068;2023-05-10T14:51:48;5.23;;;1.80;;
5060;SDS011;2549;52.128;21.068;2023-05-10T14:54:15;13.00;;;1.90;;
5060;SDS011;2549;52.128;21.068;2023-05-10T14:56:42;2.50;;;1.67;;
5060;SDS011;2549;52.128;21.068;2023-05-10T14:59:09;3.00;;;1.80;;
5060;SDS011;2549;52.128;21.068;2023-05-10T15:01:36;1.50;;;1.40;;
5060;SDS011;2549;52.128;21.068;2023-05-10T15:04:04;4.67;;;1.37;;
5060;SDS011;2549;52.128;21.068;2023-05-10T15:06:32;1.67;;;1.57;;
5060;SDS011;2549;52.128;21.068;2023-05-10T15:09:00;1.60;;;1.50;;
5060;SDS011;2549;52.128;21.068;2023-05-10T15:11:27;4.60;;;1.70;;
5060;SDS011;2549;52.128;21.068;2023-05-10T15:13:55;2.83;;;1.70;;
5060;SDS011;2549;52.128;21.068;2023-05-10T15:16:22;9.93;;;1.50;;
5060;SDS011;2549;52.128;21.068;2023-05-10T15:18:49;4.30;;;1.77;;
5060;SDS011;2549;52.128;21.068;2023-05-10T15:21:15;2.40;;;1.43;;
5060;SDS011;2549;52.128;21.068;2023-05-10T15:23:42;2.50;;;2.30;;
5060;SDS011;2549;52.128;21.068;2023-05-10T15:26:09;3.93;;;1.60;;
5060;SDS011;2549;52.128;21.068;2023-05-10T15:28:36;1.50;;;1.40;;
5060;SDS011;2549;52.128;21.068;2023-05-10T15:31:03;1.23;;;1.13;;
5060;SDS011;2549;52.128;21.068;2023-05-10T15:33:30;2.07;;;1.60;;
5060;SDS011;2549;52.128;21.068;2023-05-10T15:35:57;4.50;;;2.03;;
5060;SDS011;2549;52.128;21.068;2023-05-10T15:38:23;8.20;;;1.70;;
5060;SDS011;2549;52.128;21.068;2023-05-10T15:40:50;1.37;;;1.27;;
5060;SDS011;2549;52.128;21.068;2023-05-10T15:43:19;1.53;;;1.27;;
5060;SDS011;2549;52.128;21.068;2023-05-10T15:45:46;1.73;;;1.57;;
5060;SDS011;2549;52.128;21.068;2023-05-10T15:48:13;6.10;;;1.97;;
5060;SDS011;2549;52.128;21.068;2023-05-10T15:50:39;1.67;;;1.53;;
5060;SDS011;2549;52.128;21.068;2023-05-10T15:53:06;3.00;;;1.43;;
5060;SDS011;2549;52.128;21.068;2023-05-10T15:55:33;1.83;;;1.40;;